Amanda, OH (43102)

12:56 PM EDT on April 29, 2017 (GMT -0400)
| | Change Station

Elev -9999 ft 0.00 °N, 0.00 °E | Updated 12 minutes ago

Overcast
Overcast
°F
Feels Like °F
N
Wind Variable Wind from North
Gusts mph

Today
High -- | Low -- °F
--% Chance of Precip.
Yesterday
High -- | Low -- °F
Precip. -- in
Pressure 30.12 in
Visibility 10.0 miles
Clouds Scattered Clouds 700 ft
Mostly Cloudy 8000 ft
Dew Point Not available.
Humidity Not available.
Rainfall --
Snow Depth Not available.
6:33 AM 8:23 PM
Waxing Crescent, 15% visible
METAR KLHQ 291653Z AUTO 16006KT 10SM SCT007 BKN080 19/17 A3012 RMK AO2 RAE25 TSE03 SLP197 P0000 T01940172
Pressure 30.12 in
Visibility 10.0 miles
Clouds Scattered Clouds 700 ft
Mostly Cloudy 8000 ft
Dew Point Not available.
Humidity Not available.
Rainfall --
Snow Depth Not available.
6:33 AM 8:23 PM
Waxing Crescent, 15% visible
METAR KLHQ 291653Z AUTO 16006KT 10SM SCT007 BKN080 19/17 A3012 RMK AO2 RAE25 TSE03 SLP197 P0000 T01940172

Get Severe Weather Alerts

Thanks for signing up!

Be on the lookout for a verification email in your inbox.

You'll start receiving the daily forecast at 8 AM.

×

10-Day Weather Forecast

Almanac

Astronomy

Apr. 29, 2017 Rise Set
Actual Time
Civil Twilight
Nautical Twilight
Astronomical Twilight
Moon
Length of Visible Light
Length of Day
Tomorrow will be .
, % of the Moon is Illuminated

Today's Extremes

State Highs State Lows

Community

WunderPhotos

WunderBlog® & News

Nearby

Air Quality

  Air Quality AQ Index Pollutant
Not available.

Snow Depth

Station Depth Elevation

Earthquake Activity

City Distance Mag. Time & Date
Minimum magnitude displayed is 2.5.

Coastal Water Temperatures

Place Temperature

Stations

Nearby Weather Stations

Station Location Temp. Windchill Dew Point Humidity Wind Precip. Elev Updated Type
                   

Watches & Warnings

There are currently no watches in effect.